Etusivu
METAR-TAF:

METAR-TAF

Lentoasemat :

Pointe-à-Pitre, Guadeloupe

Leveyspiiri: 16-16N, Pituuspiiri: 061-31W, korkeus merenpinnasta: 11 m

Tämänhetkinen sää

Tämä raportti tehtiin 29 minuuttia sitten, kello 07.00 UTC
tyyntä
Lämpötila 21°C
Kosteus 94%
Ilmanpaine 1013 hPa
Näkyvyys 10 km tai enemmän
ei pilviä alle 1500 m:ssä eikä cumulonimbus-pilviä

METAR: TFFR 130700Z AUTO 00000KT CAVOK 21/20 Q1013

Aika: 03:29 (07:29 UTC)

Sääennuste

Tämä raportti tehtiin 14 tuntia ja 29 minuuttia sitten, kello 17.00 UTC
Ennuste voimassa 12. päivästä klo 18 UTC - 13. päivään klo 18 UTC
Tuuli 10 kn idästä
Näkyvyys 10 km tai enemmän
Hajanaisia pilviä 2500 ft:n korkeudessa
Todennäköisyys 30% :
Ajoittain
12. päivästä klo 18 UTC - 13. päivään klo 18 UTC
Näkyvyys: 4000 m
Hajanaisia pilviä 1500 ft:n korkeudessa, Kasvava cumulus-pilvi.
heikkoja vesikuuroja

TAF: TFFR 121700Z 1218/1318 10010KT 9999 SCT025 PROB30 TEMPO 1218/1318 4000 -SHRA SCT015TCU

Säähavainnot ja -ennusteet yli 4000 lentoasemalta (METAR- ja TAF-raportit).

Käytössä olevat sääasemat on merkitty karttaan keltaisilla ja punaisilla pisteillä.

Aseta hiiri pisteen päälle nähdäksesi sääaseman nimen.

Klikkaa sitten nähdäksesi säähavainnot ja -ennusteet.

Kartan vaihtaminen: klikkaa mustalla rastilla varustettuja vihreitä pisteitä, niin voit zoomata sisään; viivalla varustettua vihreää pistettä, niin voit zoomata ulos tai vihreitä nuolia, niin pääset viereisille kartoille.


METAR-TAF: